Urgench Airport
UTNU : now visible

Airfield :











YOU CAN JOIN US ON...

 
LOGIN :

Register | Disclaimer

   EN    FR    IT 

 









Legend :    VFR   Marginal VFR   IFR   Intensive IFR   Very Intensive IFR
Visi :
Ceiling :
>= 8 km
>= 3000ft
5 to 8 km
1000 to 3000 ft
1500m to 5 km
500 to 1000 ft
800 to 1500m
200 to 500 ft
< 800m
< 200 ft
Symbols :   Thunderstorms  Fog  Heavy snow  Heavy precipitations  Wind > 20 kt






- Airport Elevation : 320 ft
- IATA code : UGC


UTNU - Urgench

CURRENT METAR :
  • 260130Z 31014G26KT 9999 OVC018CB 08/04 Q1010 R31/CLRD70 NOSIG

EXPIRED METARs :
  • 260100Z 31020KT 9999 SCT021CB OVC100 08/04 Q1009 R31/CLRD70 NOSIG
  • 260030Z 31020G30KT 9999 SCT066CB OVC100 09/04 Q1008 R31/CLRD70 NOSIG
  • 260000Z 30014KT 9999 SCT066CB OVC100 10/04 Q1007 R13/CLRD70 NOSIG
  • 252330Z 30014KT 9999 SCT066CB OVC100 11/04 Q1007 R13/CLRD70 NOSIG
  • 252300Z 30014KT 9999 SCT066CB OVC100 12/04 Q1006 R13/CLRD70 NOSIG

TAF TAF UTNU
Valid from the 26 at 00:00 until the 27 at 00:00 UTC


252257Z 2600/2624 28012G22KT 6000 BKN030CB BKN100
TEMPO 2600/2606 32026G36KT 1500 -SHRA DS BKN007 BKN020CB



MET'MAP, your aeronautical weather chart ! - Copyright ORBIFLY December 2007 - Disclaimer

ORBIFLY MET'MAP TEAM :

Programming & Development : Alexandra Zaïnal
Concept & original design : Baudouin d'Aumeries
Assistance for programming : Marc-Olivier Méhu
Technical & hardware support : Manuel Goepfert

Contact : metmap@orbifly.com




SOURCES & CREDITS :

   NOAA       Earth
Advisory